sensor_id;sensor_type;location;lat;lon;timestamp;temperature;humidity
11320;DHT22;5715;48.234;14.320;2022-08-21T00:02:18;17.40;99.90
11320;DHT22;5715;48.234;14.320;2022-08-21T00:05:08;17.30;99.90
11320;DHT22;5715;48.234;14.320;2022-08-21T00:07:56;17.30;99.90
11320;DHT22;5715;48.234;14.320;2022-08-21T00:10:44;17.40;99.90
11320;DHT22;5715;48.234;14.320;2022-08-21T00:13:33;17.30;99.90
11320;DHT22;5715;48.234;14.320;2022-08-21T00:16:21;17.30;99.90
11320;DHT22;5715;48.234;14.320;2022-08-21T00:19:10;17.30;99.90
11320;DHT22;5715;48.234;14.320;2022-08-21T00:21:57;17.30;99.90
11320;DHT22;5715;48.234;14.320;2022-08-21T00:24:45;17.30;99.90
11320;DHT22;5715;48.234;14.320;2022-08-21T00:27:33;17.30;99.90
11320;DHT22;5715;48.234;14.320;2022-08-21T00:30:22;17.20;99.90
11320;DHT22;5715;48.234;14.320;2022-08-21T00:33:12;17.30;99.90
11320;DHT22;5715;48.234;14.320;2022-08-21T00:36:00;17.20;99.90
11320;DHT22;5715;48.234;14.320;2022-08-21T00:38:48;17.20;99.90
11320;DHT22;5715;48.234;14.320;2022-08-21T00:41:38;17.20;99.90
11320;DHT22;5715;48.234;14.320;2022-08-21T00:44:26;17.20;99.90
11320;DHT22;5715;48.234;14.320;2022-08-21T00:47:14;17.20;99.90
11320;DHT22;5715;48.234;14.320;2022-08-21T00:50:03;17.20;99.90
11320;DHT22;5715;48.234;14.320;2022-08-21T00:52:53;17.20;99.90
11320;DHT22;5715;48.234;14.320;2022-08-21T00:55:41;17.30;99.90
11320;DHT22;5715;48.234;14.320;2022-08-21T00:58:29;17.20;99.90
11320;DHT22;5715;48.234;14.320;2022-08-21T01:01:19;17.20;99.90
11320;DHT22;5715;48.234;14.320;2022-08-21T01:04:07;17.20;99.90
11320;DHT22;5715;48.234;14.320;2022-08-21T01:06:55;17.20;99.90
11320;DHT22;5715;48.234;14.320;2022-08-21T01:09:42;17.20;99.90
11320;DHT22;5715;48.234;14.320;2022-08-21T01:12:33;17.20;99.90
11320;DHT22;5715;48.234;14.320;2022-08-21T01:15:23;17.20;99.90
11320;DHT22;5715;48.234;14.320;2022-08-21T01:18:16;17.20;99.90
11320;DHT22;5715;48.234;14.320;2022-08-21T01:21:08;17.20;99.90
11320;DHT22;5715;48.234;14.320;2022-08-21T01:23:59;17.20;99.90
11320;DHT22;5715;48.234;14.320;2022-08-21T01:26:48;17.10;99.90
11320;DHT22;5715;48.234;14.320;2022-08-21T01:29:51;17.10;99.90
11320;DHT22;5715;48.234;14.320;2022-08-21T01:32:44;17.10;99.90
11320;DHT22;5715;48.234;14.320;2022-08-21T01:35:32;17.10;99.90
11320;DHT22;5715;48.234;14.320;2022-08-21T01:38:20;17.10;99.90
11320;DHT22;5715;48.234;14.320;2022-08-21T01:41:07;17.20;99.90
11320;DHT22;5715;48.234;14.320;2022-08-21T01:43:55;17.20;99.90
11320;DHT22;5715;48.234;14.320;2022-08-21T01:46:43;17.20;99.90
11320;DHT22;5715;48.234;14.320;2022-08-21T01:49:30;17.20;99.90
11320;DHT22;5715;48.234;14.320;2022-08-21T01:52:18;17.20;99.90
11320;DHT22;5715;48.234;14.320;2022-08-21T01:55:12;17.20;99.90
11320;DHT22;5715;48.234;14.320;2022-08-21T01:58:00;17.20;99.90
11320;DHT22;5715;48.234;14.320;2022-08-21T02:00:48;17.20;99.90
11320;DHT22;5715;48.234;14.320;2022-08-21T02:03:37;17.20;99.90
11320;DHT22;5715;48.234;14.320;2022-08-21T02:06:26;17.30;99.90
11320;DHT22;5715;48.234;14.320;2022-08-21T02:09:14;17.20;99.90
11320;DHT22;5715;48.234;14.320;2022-08-21T02:12:03;17.30;99.90
11320;DHT22;5715;48.234;14.320;2022-08-21T02:14:50;17.30;99.90
11320;DHT22;5715;48.234;14.320;2022-08-21T02:17:51;17.30;99.90
11320;DHT22;5715;48.234;14.320;2022-08-21T02:20:44;17.30;99.90
11320;DHT22;5715;48.234;14.320;2022-08-21T02:23:33;17.30;99.90
11320;DHT22;5715;48.234;14.320;2022-08-21T02:26:21;17.30;99.90
11320;DHT22;5715;48.234;14.320;2022-08-21T02:29:09;17.30;99.90
11320;DHT22;5715;48.234;14.320;2022-08-21T02:31:56;17.30;99.90
11320;DHT22;5715;48.234;14.320;2022-08-21T02:34:44;17.30;99.90
11320;DHT22;5715;48.234;14.320;2022-08-21T02:37:31;17.30;99.90
11320;DHT22;5715;48.234;14.320;2022-08-21T02:40:23;17.30;99.90
11320;DHT22;5715;48.234;14.320;2022-08-21T02:43:14;17.30;99.90
11320;DHT22;5715;48.234;14.320;2022-08-21T02:46:05;17.30;99.90
11320;DHT22;5715;48.234;14.320;2022-08-21T02:48:54;17.30;99.90
11320;DHT22;5715;48.234;14.320;2022-08-21T02:51:41;17.30;99.90
11320;DHT22;5715;48.234;14.320;2022-08-21T02:54:29;17.30;99.90
11320;DHT22;5715;48.234;14.320;2022-08-21T02:57:16;17.30;99.90
11320;DHT22;5715;48.234;14.320;2022-08-21T03:00:05;17.30;99.90
11320;DHT22;5715;48.234;14.320;2022-08-21T03:02:55;17.30;99.90
11320;DHT22;5715;48.234;14.320;2022-08-21T03:05:44;17.30;99.90
11320;DHT22;5715;48.234;14.320;2022-08-21T03:08:32;17.30;99.90
11320;DHT22;5715;48.234;14.320;2022-08-21T03:11:19;17.30;99.90
11320;DHT22;5715;48.234;14.320;2022-08-21T03:14:07;17.30;99.90
11320;DHT22;5715;48.234;14.320;2022-08-21T03:16:55;17.30;99.90
11320;DHT22;5715;48.234;14.320;2022-08-21T03:19:43;17.30;99.90
11320;DHT22;5715;48.234;14.320;2022-08-21T03:22:30;17.30;99.90
11320;DHT22;5715;48.234;14.320;2022-08-21T03:25:20;17.40;99.90
11320;DHT22;5715;48.234;14.320;2022-08-21T03:28:25;17.40;99.90
11320;DHT22;5715;48.234;14.320;2022-08-21T03:31:13;17.40;99.90
11320;DHT22;5715;48.234;14.320;2022-08-21T03:34:01;17.40;99.90
11320;DHT22;5715;48.234;14.320;2022-08-21T03:36:48;17.40;99.90
11320;DHT22;5715;48.234;14.320;2022-08-21T03:39:36;17.40;99.90
11320;DHT22;5715;48.234;14.320;2022-08-21T03:42:24;17.40;99.90
11320;DHT22;5715;48.234;14.320;2022-08-21T03:45:13;17.40;99.90
11320;DHT22;5715;48.234;14.320;2022-08-21T03:48:05;17.40;99.90
11320;DHT22;5715;48.234;14.320;2022-08-21T03:50:54;17.40;99.90
11320;DHT22;5715;48.234;14.320;2022-08-21T03:53:42;17.40;99.90
11320;DHT22;5715;48.234;14.320;2022-08-21T03:56:29;17.40;99.90
11320;DHT22;5715;48.234;14.320;2022-08-21T03:59:17;17.40;99.90
11320;DHT22;5715;48.234;14.320;2022-08-21T04:02:06;17.40;99.90
11320;DHT22;5715;48.234;14.320;2022-08-21T04:04:54;17.40;99.90
11320;DHT22;5715;48.234;14.320;2022-08-21T04:07:41;17.40;99.90
11320;DHT22;5715;48.234;14.320;2022-08-21T04:10:34;17.40;99.90
11320;DHT22;5715;48.234;14.320;2022-08-21T04:13:24;17.30;99.90
11320;DHT22;5715;48.234;14.320;2022-08-21T04:16:13;17.30;99.90
11320;DHT22;5715;48.234;14.320;2022-08-21T04:19:01;17.30;99.90
11320;DHT22;5715;48.234;14.320;2022-08-21T04:21:48;17.30;99.90
11320;DHT22;5715;48.234;14.320;2022-08-21T04:24:38;17.30;99.90
11320;DHT22;5715;48.234;14.320;2022-08-21T04:27:26;17.30;99.90
11320;DHT22;5715;48.234;14.320;2022-08-21T04:30:15;17.30;99.90
11320;DHT22;5715;48.234;14.320;2022-08-21T04:33:03;17.30;99.90
11320;DHT22;5715;48.234;14.320;2022-08-21T04:35:51;17.30;99.90
11320;DHT22;5715;48.234;14.320;2022-08-21T04:38:38;17.30;99.90
11320;DHT22;5715;48.234;14.320;2022-08-21T04:41:30;17.30;99.90
11320;DHT22;5715;48.234;14.320;2022-08-21T04:44:18;17.20;99.90
11320;DHT22;5715;48.234;14.320;2022-08-21T04:47:05;17.30;99.90
11320;DHT22;5715;48.234;14.320;2022-08-21T04:49:54;17.30;99.90
11320;DHT22;5715;48.234;14.320;2022-08-21T04:52:41;17.30;99.90
11320;DHT22;5715;48.234;14.320;2022-08-21T04:55:30;17.30;99.90
11320;DHT22;5715;48.234;14.320;2022-08-21T04:58:19;17.30;99.90
11320;DHT22;5715;48.234;14.320;2022-08-21T05:01:13;17.30;99.90
11320;DHT22;5715;48.234;14.320;2022-08-21T05:04:06;17.30;99.90
11320;DHT22;5715;48.234;14.320;2022-08-21T05:06:59;17.30;99.90
11320;DHT22;5715;48.234;14.320;2022-08-21T05:09:50;17.40;99.90
11320;DHT22;5715;48.234;14.320;2022-08-21T05:12:40;17.30;99.90
11320;DHT22;5715;48.234;14.320;2022-08-21T05:15:29;17.30;99.90
11320;DHT22;5715;48.234;14.320;2022-08-21T05:18:17;17.30;99.90
11320;DHT22;5715;48.234;14.320;2022-08-21T05:21:04;17.30;99.90
11320;DHT22;5715;48.234;14.320;2022-08-21T05:23:52;17.40;99.90
11320;DHT22;5715;48.234;14.320;2022-08-21T05:26:39;17.40;99.90
11320;DHT22;5715;48.234;14.320;2022-08-21T05:29:32;17.40;99.90
11320;DHT22;5715;48.234;14.320;2022-08-21T05:32:20;17.40;99.90
11320;DHT22;5715;48.234;14.320;2022-08-21T05:35:08;17.40;99.90
11320;DHT22;5715;48.234;14.320;2022-08-21T05:37:56;17.40;99.90
11320;DHT22;5715;48.234;14.320;2022-08-21T05:40:46;17.40;99.90
11320;DHT22;5715;48.234;14.320;2022-08-21T05:43:33;17.50;99.90
11320;DHT22;5715;48.234;14.320;2022-08-21T05:46:23;17.50;99.90
11320;DHT22;5715;48.234;14.320;2022-08-21T05:49:11;17.50;99.90
11320;DHT22;5715;48.234;14.320;2022-08-21T05:51:59;17.50;99.90
11320;DHT22;5715;48.234;14.320;2022-08-21T05:54:47;17.60;99.90
11320;DHT22;5715;48.234;14.320;2022-08-21T05:57:35;17.60;99.90
11320;DHT22;5715;48.234;14.320;2022-08-21T06:00:23;17.70;99.90
11320;DHT22;5715;48.234;14.320;2022-08-21T06:03:16;17.60;99.90
11320;DHT22;5715;48.234;14.320;2022-08-21T06:06:09;17.60;99.90
11320;DHT22;5715;48.234;14.320;2022-08-21T06:08:57;17.70;99.90
11320;DHT22;5715;48.234;14.320;2022-08-21T06:11:44;17.70;99.90
11320;DHT22;5715;48.234;14.320;2022-08-21T06:14:32;17.70;99.90
11320;DHT22;5715;48.234;14.320;2022-08-21T06:17:19;17.80;99.90
11320;DHT22;5715;48.234;14.320;2022-08-21T06:20:08;17.80;99.90
11320;DHT22;5715;48.234;14.320;2022-08-21T06:22:56;17.80;99.90
11320;DHT22;5715;48.234;14.320;2022-08-21T06:25:43;17.80;99.90
11320;DHT22;5715;48.234;14.320;2022-08-21T06:28:32;17.80;99.90
11320;DHT22;5715;48.234;14.320;2022-08-21T06:31:22;17.90;99.90
11320;DHT22;5715;48.234;14.320;2022-08-21T06:34:12;17.80;99.90
11320;DHT22;5715;48.234;14.320;2022-08-21T06:37:00;17.90;99.90
11320;DHT22;5715;48.234;14.320;2022-08-21T06:39:47;17.80;99.90
11320;DHT22;5715;48.234;14.320;2022-08-21T06:42:35;17.90;99.90
11320;DHT22;5715;48.234;14.320;2022-08-21T06:45:23;17.90;99.90
11320;DHT22;5715;48.234;14.320;2022-08-21T06:48:17;17.90;99.90
11320;DHT22;5715;48.234;14.320;2022-08-21T06:51:05;17.90;99.90
11320;DHT22;5715;48.234;14.320;2022-08-21T06:53:54;17.90;99.90
11320;DHT22;5715;48.234;14.320;2022-08-21T06:56:45;18.00;99.90
11320;DHT22;5715;48.234;14.320;2022-08-21T06:59:33;18.00;99.90
11320;DHT22;5715;48.234;14.320;2022-08-21T07:02:21;18.00;99.90
11320;DHT22;5715;48.234;14.320;2022-08-21T07:05:08;18.00;99.90
11320;DHT22;5715;48.234;14.320;2022-08-21T07:08:04;18.00;99.90
11320;DHT22;5715;48.234;14.320;2022-08-21T07:10:54;18.00;99.90
11320;DHT22;5715;48.234;14.320;2022-08-21T07:13:44;18.00;99.90
11320;DHT22;5715;48.234;14.320;2022-08-21T07:16:32;18.10;99.90
11320;DHT22;5715;48.234;14.320;2022-08-21T07:19:20;18.10;99.90
11320;DHT22;5715;48.234;14.320;2022-08-21T07:22:07;18.10;99.90
11320;DHT22;5715;48.234;14.320;2022-08-21T07:24:55;18.10;99.90
11320;DHT22;5715;48.234;14.320;2022-08-21T07:27:42;18.10;99.90
11320;DHT22;5715;48.234;14.320;2022-08-21T07:30:30;18.20;99.90
11320;DHT22;5715;48.234;14.320;2022-08-21T07:33:18;18.20;99.90
11320;DHT22;5715;48.234;14.320;2022-08-21T07:36:06;18.20;99.90
11320;DHT22;5715;48.234;14.320;2022-08-21T07:38:54;18.30;99.90
11320;DHT22;5715;48.234;14.320;2022-08-21T07:41:41;18.30;99.90
11320;DHT22;5715;48.234;14.320;2022-08-21T07:44:29;18.30;99.90
11320;DHT22;5715;48.234;14.320;2022-08-21T07:47:16;18.30;99.90
11320;DHT22;5715;48.234;14.320;2022-08-21T07:50:25;18.30;99.90
11320;DHT22;5715;48.234;14.320;2022-08-21T07:53:13;18.30;99.90
11320;DHT22;5715;48.234;14.320;2022-08-21T07:56:01;18.30;99.90
11320;DHT22;5715;48.234;14.320;2022-08-21T07:58:51;18.30;99.90
11320;DHT22;5715;48.234;14.320;2022-08-21T08:01:38;18.40;99.90
11320;DHT22;5715;48.234;14.320;2022-08-21T08:04:26;18.40;99.90
11320;DHT22;5715;48.234;14.320;2022-08-21T08:07:13;18.40;99.90
11320;DHT22;5715;48.234;14.320;2022-08-21T08:10:02;18.40;99.90
11320;DHT22;5715;48.234;14.320;2022-08-21T08:12:52;18.50;99.90
11320;DHT22;5715;48.234;14.320;2022-08-21T08:15:42;18.60;99.90
11320;DHT22;5715;48.234;14.320;2022-08-21T08:18:30;18.60;99.90
11320;DHT22;5715;48.234;14.320;2022-08-21T08:21:18;18.60;99.90
11320;DHT22;5715;48.234;14.320;2022-08-21T08:24:07;18.60;99.90
11320;DHT22;5715;48.234;14.320;2022-08-21T08:27:05;18.70;99.90
11320;DHT22;5715;48.234;14.320;2022-08-21T08:29:53;18.70;99.90
11320;DHT22;5715;48.234;14.320;2022-08-21T08:32:41;18.70;99.90
11320;DHT22;5715;48.234;14.320;2022-08-21T08:35:29;18.70;99.90
11320;DHT22;5715;48.234;14.320;2022-08-21T08:38:19;18.80;99.90
11320;DHT22;5715;48.234;14.320;2022-08-21T08:41:14;18.80;99.90
11320;DHT22;5715;48.234;14.320;2022-08-21T08:44:05;18.90;99.90
11320;DHT22;5715;48.234;14.320;2022-08-21T08:46:55;19.00;99.90
11320;DHT22;5715;48.234;14.320;2022-08-21T08:50:04;19.00;99.90
11320;DHT22;5715;48.234;14.320;2022-08-21T08:53:02;19.00;99.90
11320;DHT22;5715;48.234;14.320;2022-08-21T08:55:53;19.00;99.90
11320;DHT22;5715;48.234;14.320;2022-08-21T08:58:42;19.00;99.90
11320;DHT22;5715;48.234;14.320;2022-08-21T09:01:32;19.00;99.90
11320;DHT22;5715;48.234;14.320;2022-08-21T09:04:26;19.00;99.90
11320;DHT22;5715;48.234;14.320;2022-08-21T09:10:51;19.00;99.90
11320;DHT22;5715;48.234;14.320;2022-08-21T09:14:12;19.00;99.90
11320;DHT22;5715;48.234;14.320;2022-08-21T09:27:50;19.00;99.90
11320;DHT22;5715;48.234;14.320;2022-08-21T09:30:40;18.90;99.90
11320;DHT22;5715;48.234;14.320;2022-08-21T09:33:28;18.90;99.90
11320;DHT22;5715;48.234;14.320;2022-08-21T09:39:29;18.90;99.90
11320;DHT22;5715;48.234;14.320;2022-08-21T09:42:32;18.90;99.90
11320;DHT22;5715;48.234;14.320;2022-08-21T09:45:19;18.90;99.90
11320;DHT22;5715;48.234;14.320;2022-08-21T09:48:24;19.00;99.90
11320;DHT22;5715;48.234;14.320;2022-08-21T09:51:36;18.90;99.90
11320;DHT22;5715;48.234;14.320;2022-08-21T09:54:45;18.90;99.90
11320;DHT22;5715;48.234;14.320;2022-08-21T09:57:33;19.00;99.90
11320;DHT22;5715;48.234;14.320;2022-08-21T10:00:34;19.00;99.90
11320;DHT22;5715;48.234;14.320;2022-08-21T10:03:22;19.00;99.90
11320;DHT22;5715;48.234;14.320;2022-08-21T10:06:23;19.00;99.90
11320;DHT22;5715;48.234;14.320;2022-08-21T10:09:17;19.00;99.90
11320;DHT22;5715;48.234;14.320;2022-08-21T10:12:20;19.00;99.90
11320;DHT22;5715;48.234;14.320;2022-08-21T10:15:22;19.00;99.90
11320;DHT22;5715;48.234;14.320;2022-08-21T10:18:48;19.00;99.90
11320;DHT22;5715;48.234;14.320;2022-08-21T10:22:21;19.00;99.90
11320;DHT22;5715;48.234;14.320;2022-08-21T10:56:28;16.90;99.90
11320;DHT22;5715;48.234;14.320;2022-08-21T11:02:31;16.80;99.90
11320;DHT22;5715;48.234;14.320;2022-08-21T11:05:48;16.80;99.90
11320;DHT22;5715;48.234;14.320;2022-08-21T11:08:42;16.90;99.90
11320;DHT22;5715;48.234;14.320;2022-08-21T11:11:48;17.10;99.90
11320;DHT22;5715;48.234;14.320;2022-08-21T11:15:07;17.40;99.90
11320;DHT22;5715;48.234;14.320;2022-08-21T11:18:17;17.70;99.90
11320;DHT22;5715;48.234;14.320;2022-08-21T11:24:41;18.00;99.90
11320;DHT22;5715;48.234;14.320;2022-08-21T11:34:02;18.10;99.90
11320;DHT22;5715;48.234;14.320;2022-08-21T11:44:52;18.40;99.90
11320;DHT22;5715;48.234;14.320;2022-08-21T11:51:17;19.10;99.90
11320;DHT22;5715;48.234;14.320;2022-08-21T11:57:26;19.50;99.90
11320;DHT22;5715;48.234;14.320;2022-08-21T12:01:00;19.70;99.90
11320;DHT22;5715;48.234;14.320;2022-08-21T12:06:48;19.80;99.90
11320;DHT22;5715;48.234;14.320;2022-08-21T12:09:36;19.80;99.90
11320;DHT22;5715;48.234;14.320;2022-08-21T12:12:28;19.90;99.90
11320;DHT22;5715;48.234;14.320;2022-08-21T12:18:28;19.90;99.90
11320;DHT22;5715;48.234;14.320;2022-08-21T12:21:26;19.80;99.90
11320;DHT22;5715;48.234;14.320;2022-08-21T12:24:17;19.80;99.90
11320;DHT22;5715;48.234;14.320;2022-08-21T12:27:28;19.90;99.90
11320;DHT22;5715;48.234;14.320;2022-08-21T12:33:39;19.80;99.90
11320;DHT22;5715;48.234;14.320;2022-08-21T12:36:41;19.80;99.90
11320;DHT22;5715;48.234;14.320;2022-08-21T12:39:34;19.90;99.90
11320;DHT22;5715;48.234;14.320;2022-08-21T12:45:41;20.00;99.90
11320;DHT22;5715;48.234;14.320;2022-08-21T12:54:48;19.70;99.90
11320;DHT22;5715;48.234;14.320;2022-08-21T12:57:36;19.60;99.90
11320;DHT22;5715;48.234;14.320;2022-08-21T13:00:27;19.60;99.90
11320;DHT22;5715;48.234;14.320;2022-08-21T13:03:16;19.60;99.90
11320;DHT22;5715;48.234;14.320;2022-08-21T13:06:05;19.60;99.90
11320;DHT22;5715;48.234;14.320;2022-08-21T13:08:58;19.50;99.90
11320;DHT22;5715;48.234;14.320;2022-08-21T13:11:53;19.50;99.90
11320;DHT22;5715;48.234;14.320;2022-08-21T13:14:44;19.50;99.90
11320;DHT22;5715;48.234;14.320;2022-08-21T13:17:40;19.40;99.90
11320;DHT22;5715;48.234;14.320;2022-08-21T13:20:38;19.30;99.90
11320;DHT22;5715;48.234;14.320;2022-08-21T13:23:30;19.40;99.90
11320;DHT22;5715;48.234;14.320;2022-08-21T13:26:20;19.50;99.90
11320;DHT22;5715;48.234;14.320;2022-08-21T13:29:10;19.60;99.90
11320;DHT22;5715;48.234;14.320;2022-08-21T13:32:02;19.70;99.90
11320;DHT22;5715;48.234;14.320;2022-08-21T13:34:52;19.60;99.90
11320;DHT22;5715;48.234;14.320;2022-08-21T13:37:42;19.50;99.90
11320;DHT22;5715;48.234;14.320;2022-08-21T13:40:46;19.50;99.90
11320;DHT22;5715;48.234;14.320;2022-08-21T13:43:37;19.50;99.90
11320;DHT22;5715;48.234;14.320;2022-08-21T13:46:29;19.40;99.90
11320;DHT22;5715;48.234;14.320;2022-08-21T13:49:34;19.50;99.90
11320;DHT22;5715;48.234;14.320;2022-08-21T13:52:26;19.50;99.90
11320;DHT22;5715;48.234;14.320;2022-08-21T13:55:16;19.60;99.90
11320;DHT22;5715;48.234;14.320;2022-08-21T13:58:05;19.70;99.90
11320;DHT22;5715;48.234;14.320;2022-08-21T14:00:55;19.80;99.90
11320;DHT22;5715;48.234;14.320;2022-08-21T14:03:48;20.00;99.90
11320;DHT22;5715;48.234;14.320;2022-08-21T14:06:38;20.30;99.90
11320;DHT22;5715;48.234;14.320;2022-08-21T14:09:35;20.50;99.90
11320;DHT22;5715;48.234;14.320;2022-08-21T14:12:53;20.70;99.90
11320;DHT22;5715;48.234;14.320;2022-08-21T14:15:56;20.80;99.90
11320;DHT22;5715;48.234;14.320;2022-08-21T14:21:41;20.80;99.90
11320;DHT22;5715;48.234;14.320;2022-08-21T14:24:30;20.80;99.90
11320;DHT22;5715;48.234;14.320;2022-08-21T14:27:23;20.80;99.90
11320;DHT22;5715;48.234;14.320;2022-08-21T14:30:27;20.90;99.90
11320;DHT22;5715;48.234;14.320;2022-08-21T14:33:27;21.00;99.90
11320;DHT22;5715;48.234;14.320;2022-08-21T14:36:18;21.30;99.90
11320;DHT22;5715;48.234;14.320;2022-08-21T14:39:05;21.60;99.90
11320;DHT22;5715;48.234;14.320;2022-08-21T14:41:53;21.90;99.90
11320;DHT22;5715;48.234;14.320;2022-08-21T14:44:41;21.90;99.90
11320;DHT22;5715;48.234;14.320;2022-08-21T14:47:28;21.80;99.90
11320;DHT22;5715;48.234;14.320;2022-08-21T14:50:17;21.80;99.90
11320;DHT22;5715;48.234;14.320;2022-08-21T14:53:04;21.70;99.90
11320;DHT22;5715;48.234;14.320;2022-08-21T14:55:57;21.50;99.90
11320;DHT22;5715;48.234;14.320;2022-08-21T14:58:55;21.40;99.90
11320;DHT22;5715;48.234;14.320;2022-08-21T15:01:49;21.30;99.90
11320;DHT22;5715;48.234;14.320;2022-08-21T15:04:37;21.40;99.90
11320;DHT22;5715;48.234;14.320;2022-08-21T15:07:24;21.30;99.90
11320;DHT22;5715;48.234;14.320;2022-08-21T15:10:12;21.40;99.90
11320;DHT22;5715;48.234;14.320;2022-08-21T15:13:01;21.50;99.90
11320;DHT22;5715;48.234;14.320;2022-08-21T15:15:50;21.30;99.90
11320;DHT22;5715;48.234;14.320;2022-08-21T15:18:40;21.10;99.90
11320;DHT22;5715;48.234;14.320;2022-08-21T15:21:28;20.90;99.90
11320;DHT22;5715;48.234;14.320;2022-08-21T15:24:16;20.60;99.90
11320;DHT22;5715;48.234;14.320;2022-08-21T15:27:06;20.40;99.90
11320;DHT22;5715;48.234;14.320;2022-08-21T15:29:55;20.20;99.90
11320;DHT22;5715;48.234;14.320;2022-08-21T15:32:43;20.00;99.90
11320;DHT22;5715;48.234;14.320;2022-08-21T15:35:31;19.90;99.90
11320;DHT22;5715;48.234;14.320;2022-08-21T15:38:18;19.80;99.90
11320;DHT22;5715;48.234;14.320;2022-08-21T15:41:06;19.70;99.90
11320;DHT22;5715;48.234;14.320;2022-08-21T15:43:54;19.70;99.90
11320;DHT22;5715;48.234;14.320;2022-08-21T15:46:43;19.60;99.90
11320;DHT22;5715;48.234;14.320;2022-08-21T15:49:31;19.60;99.90
11320;DHT22;5715;48.234;14.320;2022-08-21T15:52:20;19.50;99.90
11320;DHT22;5715;48.234;14.320;2022-08-21T15:55:09;19.50;99.90
11320;DHT22;5715;48.234;14.320;2022-08-21T15:57:57;19.40;99.90
11320;DHT22;5715;48.234;14.320;2022-08-21T16:00:51;19.30;99.90
11320;DHT22;5715;48.234;14.320;2022-08-21T16:03:38;19.30;99.90
11320;DHT22;5715;48.234;14.320;2022-08-21T16:06:26;19.30;99.90
11320;DHT22;5715;48.234;14.320;2022-08-21T16:09:34;19.40;99.90
11320;DHT22;5715;48.234;14.320;2022-08-21T16:12:26;19.40;99.90
11320;DHT22;5715;48.234;14.320;2022-08-21T16:15:18;19.30;99.90
11320;DHT22;5715;48.234;14.320;2022-08-21T16:18:06;19.20;99.90
11320;DHT22;5715;48.234;14.320;2022-08-21T16:20:54;19.10;99.90
11320;DHT22;5715;48.234;14.320;2022-08-21T16:23:42;19.10;99.90
11320;DHT22;5715;48.234;14.320;2022-08-21T16:26:30;19.00;99.90
11320;DHT22;5715;48.234;14.320;2022-08-21T16:29:21;19.00;99.90
11320;DHT22;5715;48.234;14.320;2022-08-21T16:32:09;19.00;99.90
11320;DHT22;5715;48.234;14.320;2022-08-21T16:34:57;19.00;99.90
11320;DHT22;5715;48.234;14.320;2022-08-21T16:37:45;19.00;99.90
11320;DHT22;5715;48.234;14.320;2022-08-21T16:40:38;18.90;99.90
11320;DHT22;5715;48.234;14.320;2022-08-21T16:43:28;18.90;99.90
11320;DHT22;5715;48.234;14.320;2022-08-21T16:46:17;18.90;99.90
11320;DHT22;5715;48.234;14.320;2022-08-21T16:49:08;19.00;99.90
11320;DHT22;5715;48.234;14.320;2022-08-21T16:51:56;19.00;99.90
11320;DHT22;5715;48.234;14.320;2022-08-21T16:54:43;19.00;99.90
11320;DHT22;5715;48.234;14.320;2022-08-21T16:57:31;18.90;99.90
11320;DHT22;5715;48.234;14.320;2022-08-21T17:00:19;18.80;99.90
11320;DHT22;5715;48.234;14.320;2022-08-21T17:03:13;18.90;99.90
11320;DHT22;5715;48.234;14.320;2022-08-21T17:06:03;19.00;99.90
11320;DHT22;5715;48.234;14.320;2022-08-21T17:08:52;19.00;99.90
11320;DHT22;5715;48.234;14.320;2022-08-21T17:11:45;19.00;99.90
11320;DHT22;5715;48.234;14.320;2022-08-21T17:14:35;19.10;99.90
11320;DHT22;5715;48.234;14.320;2022-08-21T17:17:24;19.10;99.90
11320;DHT22;5715;48.234;14.320;2022-08-21T17:20:11;19.10;99.90
11320;DHT22;5715;48.234;14.320;2022-08-21T17:23:01;19.20;99.90
11320;DHT22;5715;48.234;14.320;2022-08-21T17:25:51;19.20;99.90
11320;DHT22;5715;48.234;14.320;2022-08-21T17:28:41;19.10;99.90
11320;DHT22;5715;48.234;14.320;2022-08-21T17:31:31;19.10;99.90
11320;DHT22;5715;48.234;14.320;2022-08-21T17:34:19;19.00;99.90
11320;DHT22;5715;48.234;14.320;2022-08-21T17:37:07;19.00;99.90
11320;DHT22;5715;48.234;14.320;2022-08-21T17:39:54;18.90;99.90
11320;DHT22;5715;48.234;14.320;2022-08-21T17:42:44;18.80;99.90
11320;DHT22;5715;48.234;14.320;2022-08-21T17:45:33;18.70;99.90
11320;DHT22;5715;48.234;14.320;2022-08-21T17:48:23;18.60;99.90
11320;DHT22;5715;48.234;14.320;2022-08-21T17:51:11;18.60;99.90
11320;DHT22;5715;48.234;14.320;2022-08-21T17:53:59;18.50;99.90
11320;DHT22;5715;48.234;14.320;2022-08-21T17:56:47;18.50;99.90
11320;DHT22;5715;48.234;14.320;2022-08-21T17:59:34;18.40;99.90
11320;DHT22;5715;48.234;14.320;2022-08-21T18:02:22;18.40;99.90
11320;DHT22;5715;48.234;14.320;2022-08-21T18:05:12;18.40;99.90
11320;DHT22;5715;48.234;14.320;2022-08-21T18:08:01;18.30;99.90
11320;DHT22;5715;48.234;14.320;2022-08-21T18:10:49;18.30;99.90
11320;DHT22;5715;48.234;14.320;2022-08-21T18:13:38;18.40;99.90
11320;DHT22;5715;48.234;14.320;2022-08-21T18:16:28;18.20;99.90
11320;DHT22;5715;48.234;14.320;2022-08-21T18:19:18;18.20;99.90
11320;DHT22;5715;48.234;14.320;2022-08-21T18:22:07;18.10;99.90
11320;DHT22;5715;48.234;14.320;2022-08-21T18:24:57;18.10;99.90
11320;DHT22;5715;48.234;14.320;2022-08-21T18:27:45;18.10;99.90
11320;DHT22;5715;48.234;14.320;2022-08-21T18:30:38;18.00;99.90
11320;DHT22;5715;48.234;14.320;2022-08-21T18:33:28;18.10;99.90
11320;DHT22;5715;48.234;14.320;2022-08-21T18:36:15;18.00;99.90
11320;DHT22;5715;48.234;14.320;2022-08-21T18:39:04;18.00;99.90
11320;DHT22;5715;48.234;14.320;2022-08-21T18:42:14;18.00;99.90
11320;DHT22;5715;48.234;14.320;2022-08-21T18:45:06;18.00;99.90
11320;DHT22;5715;48.234;14.320;2022-08-21T18:47:57;17.90;99.90
11320;DHT22;5715;48.234;14.320;2022-08-21T18:50:48;17.90;99.90
11320;DHT22;5715;48.234;14.320;2022-08-21T18:53:36;17.90;99.90
11320;DHT22;5715;48.234;14.320;2022-08-21T18:56:25;17.80;99.90
11320;DHT22;5715;48.234;14.320;2022-08-21T18:59:14;17.80;99.90
11320;DHT22;5715;48.234;14.320;2022-08-21T19:02:02;17.80;99.90
11320;DHT22;5715;48.234;14.320;2022-08-21T19:04:54;17.80;99.90
11320;DHT22;5715;48.234;14.320;2022-08-21T19:07:42;17.80;99.90
11320;DHT22;5715;48.234;14.320;2022-08-21T19:10:29;17.80;99.90
11320;DHT22;5715;48.234;14.320;2022-08-21T19:13:19;17.90;99.90
11320;DHT22;5715;48.234;14.320;2022-08-21T19:16:09;17.90;99.90
11320;DHT22;5715;48.234;14.320;2022-08-21T19:18:58;17.90;99.90
11320;DHT22;5715;48.234;14.320;2022-08-21T19:21:47;18.00;99.90
11320;DHT22;5715;48.234;14.320;2022-08-21T19:24:35;18.00;99.90
11320;DHT22;5715;48.234;14.320;2022-08-21T19:27:23;18.00;99.90
11320;DHT22;5715;48.234;14.320;2022-08-21T19:30:11;18.00;99.90
11320;DHT22;5715;48.234;14.320;2022-08-21T19:32:59;17.90;99.90
11320;DHT22;5715;48.234;14.320;2022-08-21T19:35:47;17.90;99.90
11320;DHT22;5715;48.234;14.320;2022-08-21T19:38:55;17.80;99.90